Aviation Digital Data Service (ADDS)

Output produced by METARs form (0239 UTC 22 July 2017)
found at http://www.aviationweather.gov/adds/metars/
 
TAF FQBR 211600Z 2118/2224 36007KT 9999 FEW025 
     BECMG 2208/2210 27008KT 
     BECMG 2212/2214 15010KT CAVOK 
     BECMG 2218/2220 03008KT 9999 FEW020 TN15/2202ZTX25/2212Z
       
TAF FQCH 211000Z 2112/2212 14008KT 9999 FEW015 
     BECMG 2118/2120 22010KT 
     BECMG 2206/2208 02010KT TN14/2202ZTX23/2212Z
       
TAF FQIN 211000Z 2112/2212 04007KT 9999 FEW020 
     BECMG 2118/2120 22010KT 
     BECMG 2200/2202 34010KT TN13/2202ZTX25/2212Z
       
FQLC 220000Z 08004KT CAVOK 14/11 Q1022
TAF FQLC 211600Z 2118/2218 VRB06KT 9999 SCT015 
     PROB30 
     TEMPO 2201/2205 3000 BR FEW012 
     BECMG 2206/2208 03008KT CAVOK 
     BECMG 2212/2214 23010KT CAVOK TN13/2202ZTX21/2212Z
       
FQMA 220200Z 36008KT CAVOK 15/13 Q1017 NOSIG
TAF FQMA 211600Z 2118/2224 36008KT CAVOK 
     BECMG 2206/2208 32008KT 9999 FEW025 
     BECMG 2212/2214 13010KT CAVOK 
     BECMG 2218/2220 VRB07KT TN13/2202ZTX29/2212Z
       
TAF FQNC 211600Z 2118/2224 22008KT 9999 FEW020 
     BECMG 2206/2208 17008KT 
     BECMG 2212/2214 10010KT FEW025 
     BECMG 2218/2220 VRB06KT TN17/2202ZTX26/2212Z
       
TAF FQNP 211600Z 2118/2224 21008KT 9999 SCT020 
     BECMG 2206/2208 16010KT FEW020 
     BECMG 2212/2214 10010KT 
     BECMG 2218/2220 17006KT TN18/2202ZTX27/2212Z
       
TAF FQPB 211600Z 2118/2218 22008KT 9999 FEW020 
     BECMG 2206/2208 16008KT 
     BECMG 2212/2214 09010KT SCT025 TN20/2202ZTX28/2212Z
       
TAF FQQL 211600Z 2118/2218 22008KT 9999 FEW020 
     BECMG 2208/2210 17008KT CAVOK 
     BECMG 2212/2214 12010KT TN17/2202ZTX26/2212Z
       
TAF FQTT 211000Z 2112/2212 14010KT 9999 FEW025 
     BECMG 2118/2120 23010KT 
     BECMG 2206/2208 VRB03KT TN16/2202ZTX28/2212Z
       
TAF FQVL 211000Z 2112/2212 15010KT 9999 FEW020 
     BECMG 2118/2120 22010KT 
     BECMG 2200/2202 34010KT TN15/2202ZTX26/2212Z